This is the latest recevied weather packets stored in our database for station/object K0WOI. If no packets are shown the sender has not sent any weather packets the latest 10 day(s).
| Time | Temp. | Humidity | Pressure | Rain* | Wind** | Luminosity | Snow |
|---|---|---|---|---|---|---|---|
| 1777926293 | 27.22° C | 33% | 999.7 hPa | 0 mm | - | 587 W/m² | - |
| 1777925990 | 26.67° C | 33% | 999.7 hPa | 0 mm | - | 623 W/m² | - |
| 1777925687 | 27.22° C | 32% | 999.7 hPa | 0 mm | - | 664 W/m² | - |
| 1777925385 | 27.78° C | 37% | 999.6 hPa | 0 mm | - | 703 W/m² | - |
| 1777925081 | 27.22° C | 31% | 999.6 hPa | 0 mm | - | 687 W/m² | - |
| 1777924778 | 26.67° C | 33% | 999.5 hPa | 0 mm | - | 718 W/m² | - |
| 1777924474 | 25.56° C | 31% | 999.6 hPa | 0 mm | - | 204 W/m² | - |
| 1777924171 | 25.56° C | 31% | 999.5 hPa | 0 mm | - | 124 W/m² | - |
| 1777923867 | 26.11° C | 31% | 999.3 hPa | 0 mm | - | 118 W/m² | - |
| 1777923563 | 26.67° C | 30% | 999.5 hPa | 0 mm | - | 190 W/m² | - |
| 1777923260 | 27.78° C | 28% | 999.6 hPa | 0 mm | - | 200 W/m² | - |
| 1777922959 | 27.78° C | 30% | 999.3 hPa | 0 mm | - | 741 W/m² | - |
| 1777922655 | 27.22° C | 28% | 999.4 hPa | 0 mm | - | 716 W/m² | - |
| 1777922355 | 27.78° C | 27% | 999.4 hPa | 0 mm | - | 753 W/m² | - |
| 1777922052 | 27.78° C | 28% | 999.4 hPa | 0 mm | - | 769 W/m² | - |
| 1777921747 | 27.22° C | 26% | 999.2 hPa | 0 mm | - | 783 W/m² | - |
| 1777921443 | 27.22° C | 29% | 999.5 hPa | 0 mm | - | 352 W/m² | - |
| 1777921140 | 27.22° C | 27% | 999.6 hPa | 0 mm | - | 766 W/m² | - |
| 1777920837 | 27.78° C | 28% | 999.6 hPa | 0 mm | - | 714 W/m² | - |
| 1777920533 | 27.22° C | 27% | 999.8 hPa | 0 mm | - | 726 W/m² | - |
| 1777920229 | 27.22° C | 28% | 999.8 hPa | 0 mm | - | 740 W/m² | - |
| 1777919925 | 26.67° C | 27% | 999.7 hPa | 0 mm | - | 769 W/m² | - |
| 1777919623 | 26.67° C | 27% | 999.7 hPa | 0 mm | - | 609 W/m² | - |
| 1777919320 | 26.11° C | 29% | 999.8 hPa | 0 mm | - | 260 W/m² | - |
| 1777919018 | 26.67° C | 30% | 999.6 hPa | 0 mm | - | 721 W/m² | - |
* Rain latest hour (hover to see other rain measurements)
** Current wind speed in m/s (hover to see current wind gust speed)